Time;durP1;ratioP1;P1;durP2;ratioP2;P2;SDS_P1;SDS_P2;PMS_P1;PMS_P2;Temp;Humidity;BMP_temperature;BMP_pressure;BME280_temperature;BME280_humidity;BME280_pressure;Samples;Min_cycle;Max_cycle;Signal;HPM_P1;HPM_P2
2021/12/28 00:01:02;;;;;;;26.63;15.75;;;4.50;99.90;;;;;;5032712;28;20041;-84
2021/12/28 00:03:28;;;;;;;29.48;15.60;;;5.10;99.90;;;;;;5065159;28;20052;-84
2021/12/28 00:05:54;;;;;;;30.83;16.15;;;5.00;99.90;;;;;;5036090;28;20099;-84
2021/12/28 00:08:20;;;;;;;32.10;15.70;;;3.90;99.90;;;;;;5012170;28;20081;-84
2021/12/28 00:10:47;;;;;;;27.75;16.38;;;3.80;99.90;;;;;;4996073;28;20034;-84
2021/12/28 00:13:15;;;;;;;31.08;16.52;;;3.80;99.90;;;;;;5061894;28;20057;-84
2021/12/28 00:15:50;;;;;;;28.85;16.38;;;4.80;99.90;;;;;;4996524;28;20041;-84
2021/12/28 00:18:17;;;;;;;31.95;17.48;;;3.90;99.90;;;;;;5028588;28;20052;-84
2021/12/28 00:20:46;;;;;;;33.20;17.55;;;3.90;99.90;;;;;;5045046;28;20444;-85
2021/12/28 00:23:18;;;;;;;33.35;17.20;;;3.90;99.90;;;;;;5028833;28;20145;-85
2021/12/28 00:25:49;;;;;;;37.20;19.00;;;3.90;99.90;;;;;;5045228;28;20129;-85
2021/12/28 00:28:16;;;;;;;34.42;18.15;;;3.90;99.90;;;;;;5012494;28;20414;-85
2021/12/28 00:30:43;;;;;;;35.33;18.27;;;3.90;99.90;;;;;;5029193;28;20041;-85
2021/12/28 00:33:11;;;;;;;35.40;17.90;;;4.80;99.90;;;;;;5028821;28;20083;-84
2021/12/28 00:35:39;;;;;;;37.47;18.58;;;4.00;99.90;;;;;;5028104;28;20033;-85
2021/12/28 00:38:08;;;;;;;41.65;18.33;;;4.20;99.90;;;;;;5061512;28;20124;-85
2021/12/28 00:40:35;;;;;;;39.78;18.67;;;3.90;99.90;;;;;;5028087;28;20356;-84
2021/12/28 00:43:01;;;;;;;40.80;19.05;;;3.90;99.90;;;;;;4996214;28;20041;-85
2021/12/28 00:45:27;;;;;;;44.13;19.48;;;3.90;99.90;;;;;;5028310;28;20041;-84
2021/12/28 00:47:53;;;;;;;40.08;18.55;;;4.00;99.90;;;;;;5028985;28;20405;-85
2021/12/28 00:50:19;;;;;;;44.40;19.35;;;5.00;99.90;;;;;;5028207;28;20042;-85
2021/12/28 00:52:47;;;;;;;43.03;20.52;;;4.00;99.90;;;;;;5012337;28;20523;-85
2021/12/28 00:55:15;;;;;;;44.72;21.67;;;4.00;99.90;;;;;;5028421;28;20136;-84
2021/12/28 00:57:41;;;;;;;46.88;21.05;;;5.40;99.90;;;;;;5061650;28;20397;-85
2021/12/28 01:00:12;;;;;;;46.72;21.52;;;4.10;99.90;;;;;;5061519;28;20041;-85
2021/12/28 01:02:38;;;;;;;44.97;21.33;;;4.10;99.90;;;;;;5060613;28;20045;-84
2021/12/28 01:05:05;;;;;;;48.88;22.48;;;4.00;99.90;;;;;;5045410;28;20029;-84
2021/12/28 01:07:31;;;;;;;45.13;21.23;;;4.10;99.90;;;;;;4994460;28;20079;-84
2021/12/28 01:09:56;;;;;;;50.47;21.92;;;5.20;99.90;;;;;;5044672;28;20413;-84
2021/12/28 01:12:22;;;;;;;50.47;22.33;;;4.10;99.90;;;;;;5061114;28;20370;-84
2021/12/28 01:14:48;;;;;;;55.13;24.98;;;4.60;99.90;;;;;;5045199;28;20037;-85
2021/12/28 01:17:14;;;;;;;59.63;24.90;;;4.90;99.90;;;;;;5061565;28;20489;-84
2021/12/28 01:19:40;;;;;;;62.63;25.73;;;4.20;99.90;;;;;;5027784;28;20049;-85
2021/12/28 01:22:06;;;;;;;68.40;27.65;;;4.30;99.90;;;;;;5044734;28;20045;-84
2021/12/28 01:24:32;;;;;;;69.30;27.05;;;4.30;99.90;;;;;;4994773;28;20091;-85
2021/12/28 01:26:58;;;;;;;75.80;28.17;;;4.40;99.90;;;;;;4995077;28;20404;-85
2021/12/28 01:29:24;;;;;;;72.70;26.95;;;4.40;99.90;;;;;;5063001;28;20033;-85
2021/12/28 01:31:51;;;;;;;73.07;29.05;;;4.40;99.90;;;;;;5048155;28;20107;-84
2021/12/28 01:34:17;;;;;;;75.15;28.48;;;6.10;99.90;;;;;;5047430;28;20063;-84
2021/12/28 01:36:43;;;;;;;84.47;29.95;;;4.60;99.90;;;;;;5047865;28;20127;-85
2021/12/28 01:39:09;;;;;;;78.30;28.92;;;5.60;99.90;;;;;;5031429;28;20080;-84
2021/12/28 01:41:36;;;;;;;100.65;32.15;;;4.70;99.90;;;;;;5030719;28;20044;-85
2021/12/28 01:44:07;;;;;;;89.03;31.52;;;4.90;99.90;;;;;;5047809;28;20422;-84
2021/12/28 01:46:34;;;;;;;110.30;35.08;;;4.80;99.90;;;;;;5014544;28;20045;-84
2021/12/28 01:49:01;;;;;;;106.18;34.85;;;4.80;99.90;;;;;;5027255;28;20041;-85
2021/12/28 01:51:27;;;;;;;119.57;35.88;;;6.30;99.90;;;;;;5027086;28;20060;-85
2021/12/28 01:53:55;;;;;;;;;;;4.90;99.90;;;;;;5028491;28;20041;-85
2021/12/28 01:56:25;;;;;;;111.78;32.50;;;4.80;99.90;;;;;;5061634;28;19917;-85
2021/12/28 01:58:51;;;;;;;118.43;35.92;;;4.90;99.90;;;;;;5061790;28;20045;-85
2021/12/28 02:01:17;;;;;;;128.52;36.08;;;5.00;99.90;;;;;;5011359;28;20413;-84
2021/12/28 02:03:44;;;;;;;155.13;38.88;;;5.30;99.90;;;;;;5027848;28;20052;-84
2021/12/28 02:06:11;;;;;;;135.55;38.08;;;5.90;99.90;;;;;;5027972;28;20518;-83
2021/12/28 02:08:38;;;;;;;150.68;39.20;;;5.20;99.90;;;;;;5060799;28;20120;-82
2021/12/28 02:11:05;;;;;;;147.55;39.85;;;5.40;99.90;;;;;;5011249;28;20038;-83
2021/12/28 02:13:31;;;;;;;203.70;46.90;;;5.10;99.90;;;;;;5061232;28;20061;-82
2021/12/28 02:15:58;;;;;;;167.15;40.70;;;6.40;99.90;;;;;;5031383;28;20041;-82
2021/12/28 02:18:26;;;;;;;155.90;39.17;;;5.10;99.90;;;;;;5016382;28;20038;-82
2021/12/28 02:20:52;;;;;;;181.55;42.00;;;5.20;99.90;;;;;;5050948;28;20044;-83
2021/12/28 02:23:18;;;;;;;181.90;43.70;;;5.20;99.90;;;;;;5034552;28;20131;-82
2021/12/28 02:25:45;;;;;;;192.85;43.50;;;5.20;99.90;;;;;;5034827;28;20044;-83
2021/12/28 02:28:13;;;;;;;186.75;42.80;;;5.20;99.90;;;;;;5067761;28;20083;-83
2021/12/28 02:30:41;;;;;;;203.05;42.85;;;5.70;99.90;;;;;;5066821;28;20041;-83
2021/12/28 02:33:07;;;;;;;256.20;51.47;;;5.30;99.90;;;;;;5050437;28;20485;-82
2021/12/28 02:35:34;;;;;;;238.93;45.53;;;5.30;99.90;;;;;;5013946;28;20508;-82
2021/12/28 02:38:00;;;;;;;240.45;46.75;;;5.30;99.90;;;;;;5047795;28;20489;-82
2021/12/28 02:40:29;;;;;;;250.05;48.45;;;6.20;99.90;;;;;;5047671;28;20064;-82
2021/12/28 02:42:57;;;;;;;252.57;49.15;;;5.30;99.90;;;;;;5031179;28;20049;-82
2021/12/28 02:45:36;;;;;;;295.63;49.03;;;5.70;99.90;;;;;;5030339;28;20044;-82
2021/12/28 02:48:04;;;;;;;250.10;46.85;;;5.30;99.90;;;;;;5030551;28;20046;-83
2021/12/28 02:50:42;;;;;;;219.95;43.83;;;5.40;99.90;;;;;;5013719;28;20374;-82
2021/12/28 02:53:09;;;;;;;274.58;47.60;;;5.40;99.90;;;;;;5030477;28;20454;-82
2021/12/28 02:55:39;;;;;;;218.80;42.05;;;5.70;99.90;;;;;;5047846;28;20465;-83
2021/12/28 02:58:12;;;;;;;265.35;47.55;;;5.50;99.90;;;;;;5064707;28;20535;-83
2021/12/28 03:00:40;;;;;;;289.40;51.13;;;6.20;99.90;;;;;;5030427;28;20038;-82
2021/12/28 03:03:33;;;;;;;271.33;51.90;;;5.50;99.90;;;;;;5047493;28;20045;-83
2021/12/28 03:06:04;;;;;;;220.73;45.70;;;5.50;99.90;;;;;;5027975;28;20045;-83
2021/12/28 03:08:31;;;;;;;252.77;49.03;;;5.60;99.90;;;;;;5023727;28;20041;-83
2021/12/28 03:10:59;;;;;;;299.92;48.92;;;5.60;99.90;;;;;;5050190;28;20056;-83
2021/12/28 03:13:40;;;;;;;229.65;45.85;;;5.60;99.90;;;;;;5049714;28;20049;-82
2021/12/28 03:16:07;;;;;;;258.40;48.97;;;5.60;99.90;;;;;;5050273;28;20471;-82
2021/12/28 03:18:34;;;;;;;340.67;54.83;;;5.60;99.90;;;;;;5032636;28;20041;-82
2021/12/28 03:21:01;;;;;;;267.70;50.80;;;5.90;99.90;;;;;;5050408;28;20388;-83
2021/12/28 03:23:27;;;;;;;388.25;59.97;;;5.60;99.90;;;;;;5033157;28;20032;-82
2021/12/28 03:25:54;;;;;;;322.35;52.55;;;6.70;99.90;;;;;;5072887;28;20056;-82
2021/12/28 03:28:27;;;;;;;223.82;46.40;;;5.60;99.90;;;;;;5063091;28;20514;-83
2021/12/28 03:30:55;;;;;;;281.65;51.50;;;5.90;99.90;;;;;;5062794;28;20116;-82
2021/12/28 03:33:23;;;;;;;236.50;45.60;;;6.70;99.90;;;;;;5013219;28;20114;-83
2021/12/28 03:35:49;;;;;;;240.75;46.65;;;5.70;99.90;;;;;;5062799;28;20192;-83
2021/12/28 03:38:15;;;;;;;247.88;47.92;;;5.60;99.90;;;;;;5013618;28;20167;-83
2021/12/28 03:40:42;;;;;;;280.63;49.42;;;5.70;99.90;;;;;;5013017;28;20597;-83
2021/12/28 03:43:08;;;;;;;262.02;47.17;;;5.80;99.90;;;;;;5013560;28;20493;-83
2021/12/28 03:45:34;;;;;;;238.68;46.50;;;5.70;99.90;;;;;;5012203;28;20472;-83
2021/12/28 03:48:00;;;;;;;232.80;48.22;;;5.90;99.90;;;;;;5063068;28;20148;-83
2021/12/28 03:50:28;;;;;;;237.65;47.28;;;5.80;99.90;;;;;;5045903;28;20041;-83
2021/12/28 03:52:54;;;;;;;204.83;42.93;;;7.00;99.90;;;;;;5013026;28;20410;-83
2021/12/28 03:55:22;;;;;;;285.67;49.90;;;5.80;99.90;;;;;;5029645;28;20276;-83
2021/12/28 03:57:49;;;;;;;252.35;45.75;;;5.80;99.90;;;;;;5029188;28;20103;-83
2021/12/28 04:00:18;;;;;;;242.55;46.05;;;6.80;99.90;;;;;;5046295;28;20047;-83
2021/12/28 04:02:44;;;;;;;238.10;45.35;;;5.80;99.90;;;;;;5083116;28;20033;-83
2021/12/28 04:05:10;;;;;;;223.70;44.53;;;5.80;99.90;;;;;;5033529;28;20044;-83
2021/12/28 04:07:37;;;;;;;238.30;46.90;;;5.90;99.90;;;;;;5065658;28;20051;-83
2021/12/28 04:10:04;;;;;;;228.38;45.55;;;5.90;99.90;;;;;;5016411;28;20041;-83
2021/12/28 04:12:31;;;;;;;237.07;45.92;;;5.80;99.90;;;;;;5032800;28;20186;-83
2021/12/28 04:14:57;;;;;;;221.93;44.92;;;5.80;99.90;;;;;;5074026;28;20064;-83
2021/12/28 04:17:25;;;;;;;198.80;42.55;;;5.90;99.90;;;;;;5062608;28;20045;-83
2021/12/28 04:19:51;;;;;;;201.73;41.70;;;5.90;99.90;;;;;;5062205;28;20041;-83
2021/12/28 04:22:17;;;;;;;194.73;42.08;;;5.90;99.90;;;;;;5029055;28;20048;-82
2021/12/28 04:24:46;;;;;;;245.20;46.60;;;5.90;99.90;;;;;;5028534;28;20037;-82
2021/12/28 04:27:12;;;;;;;224.15;45.03;;;6.00;99.90;;;;;;5028738;28;20042;-83
2021/12/28 04:29:38;;;;;;;232.27;43.60;;;6.00;99.90;;;;;;5044834;28;20045;-83
2021/12/28 04:32:04;;;;;;;279.63;48.97;;;6.00;99.90;;;;;;5062311;28;20150;-82
2021/12/28 04:34:30;;;;;;;397.52;57.00;;;5.90;99.90;;;;;;5045082;28;20049;-83
2021/12/28 04:36:55;;;;;;;296.60;48.20;;;5.90;99.90;;;;;;4994920;28;20555;-82
2021/12/28 04:39:21;;;;;;;299.87;48.77;;;5.90;99.90;;;;;;5045352;28;20037;-83
2021/12/28 04:41:47;;;;;;;221.63;42.53;;;6.00;99.90;;;;;;5044723;28;20288;-83
2021/12/28 04:44:13;;;;;;;326.27;51.13;;;5.90;99.90;;;;;;5012379;28;20670;-83
2021/12/28 04:46:40;;;;;;;223.32;44.28;;;5.90;99.90;;;;;;5061371;28;20273;-83
2021/12/28 04:49:06;;;;;;;249.13;45.53;;;5.80;99.90;;;;;;5028277;28;20401;-83
2021/12/28 04:51:32;;;;;;;375.65;57.08;;;5.80;99.90;;;;;;4995679;28;20033;-84
2021/12/28 04:54:00;;;;;;;187.25;41.20;;;6.00;99.90;;;;;;5027682;28;20048;-84
2021/12/28 04:56:26;;;;;;;411.52;59.92;;;5.90;99.90;;;;;;5028812;28;20041;-84
2021/12/28 04:58:52;;;;;;;325.90;50.50;;;5.90;99.90;;;;;;5012010;28;20045;-83
2021/12/28 05:01:18;;;;;;;272.52;47.28;;;6.10;99.90;;;;;;5011551;28;20087;-84
2021/12/28 05:03:43;;;;;;;302.13;48.80;;;5.90;99.90;;;;;;5044770;28;20080;-84
2021/12/28 05:06:09;;;;;;;235.63;42.87;;;6.00;99.90;;;;;;5045331;28;20345;-85
2021/12/28 05:08:35;;;;;;;274.65;46.28;;;5.90;99.90;;;;;;5027665;28;20387;-84
2021/12/28 05:11:01;;;;;;;280.85;47.15;;;5.90;99.90;;;;;;5044595;28;20397;-84
2021/12/28 05:13:27;;;;;;;309.83;50.72;;;5.90;99.90;;;;;;5059375;28;20153;-84
2021/12/28 05:15:53;;;;;;;336.10;53.35;;;5.80;99.90;;;;;;5015607;28;20057;-85
2021/12/28 05:18:20;;;;;;;350.35;51.60;;;5.80;99.90;;;;;;5044849;28;20164;-85
2021/12/28 05:20:46;;;;;;;310.80;47.67;;;5.80;99.90;;;;;;5043838;28;20041;-85
2021/12/28 05:23:12;;;;;;;;;;;5.70;99.90;;;;;;5045158;28;20134;-85
2021/12/28 05:25:38;;;;;;;354.52;53.83;;;5.70;99.90;;;;;;5044780;28;20461;-85
2021/12/28 05:28:04;;;;;;;406.63;58.72;;;5.60;99.90;;;;;;5061160;28;20129;-84
2021/12/28 05:30:30;;;;;;;373.75;52.97;;;5.60;99.90;;;;;;5011897;28;20034;-85
2021/12/28 05:32:56;;;;;;;411.10;55.42;;;5.50;99.90;;;;;;4995416;28;20045;-85
2021/12/28 05:35:22;;;;;;;414.13;57.40;;;6.30;99.90;;;;;;5011734;28;20103;-85
2021/12/28 05:37:48;;;;;;;429.15;58.10;;;6.80;99.90;;;;;;5060536;28;20033;-84
2021/12/28 05:40:14;;;;;;;341.48;48.03;;;6.00;99.90;;;;;;5044653;28;20092;-84
2021/12/28 05:42:40;;;;;;;319.98;46.72;;;5.40;99.90;;;;;;5011195;28;20045;-85
2021/12/28 05:45:07;;;;;;;341.65;48.72;;;5.70;99.90;;;;;;5011480;28;20095;-85
2021/12/28 05:47:33;;;;;;;382.90;53.55;;;5.30;99.90;;;;;;5045771;28;20042;-85
2021/12/28 05:49:59;;;;;;;261.77;42.65;;;5.20;99.90;;;;;;5047641;28;20076;-84
2021/12/28 05:52:25;;;;;;;263.65;45.25;;;5.20;99.90;;;;;;5065927;28;20497;-85
2021/12/28 05:54:51;;;;;;;310.55;49.90;;;5.20;99.90;;;;;;5067992;28;20083;-84
2021/12/28 05:57:18;;;;;;;209.43;39.77;;;5.20;99.90;;;;;;5068664;28;20519;-85
2021/12/28 05:59:44;;;;;;;166.88;38.60;;;5.20;99.90;;;;;;5085168;28;20491;-85
2021/12/28 06:02:10;;;;;;;171.13;37.83;;;5.10;99.90;;;;;;5051719;28;20364;-85
2021/12/28 06:04:35;;;;;;;166.95;37.35;;;5.10;99.90;;;;;;5018712;28;20049;-84
2021/12/28 06:07:01;;;;;;;186.93;39.42;;;6.10;99.90;;;;;;5084805;28;20139;-84
2021/12/28 06:09:27;;;;;;;165.45;36.58;;;6.10;99.90;;;;;;5080862;28;20049;-85
2021/12/28 06:11:53;;;;;;;154.55;35.25;;;5.20;99.90;;;;;;5031084;28;20041;-85
2021/12/28 06:14:19;;;;;;;140.00;34.65;;;5.20;99.90;;;;;;5064537;28;20041;-85
2021/12/28 06:16:45;;;;;;;155.68;35.22;;;5.20;99.90;;;;;;5030924;28;20053;-85
2021/12/28 06:19:11;;;;;;;142.80;35.58;;;5.20;99.90;;;;;;5047815;28;20049;-85
2021/12/28 06:21:37;;;;;;;148.70;37.42;;;5.20;99.90;;;;;;5031323;28;20041;-85
2021/12/28 06:24:04;;;;;;;135.80;32.88;;;5.20;99.90;;;;;;5014290;28;20041;-85
2021/12/28 06:26:31;;;;;;;148.55;35.40;;;5.20;99.90;;;;;;5050933;28;20033;-85
2021/12/28 06:28:57;;;;;;;124.55;31.77;;;5.10;99.90;;;;;;5083788;28;20048;-85
2021/12/28 06:31:28;;;;;;;112.75;30.38;;;5.10;99.90;;;;;;5050921;28;20041;-85
2021/12/28 06:33:57;;;;;;;118.38;31.55;;;5.10;99.90;;;;;;5067941;28;20123;-85
2021/12/28 06:36:23;;;;;;;101.68;27.38;;;5.10;99.90;;;;;;5034214;28;20051;-85
2021/12/28 06:38:50;;;;;;;106.97;28.83;;;5.10;99.90;;;;;;5084105;28;20045;-85
2021/12/28 06:41:15;;;;;;;94.13;28.17;;;6.50;99.90;;;;;;5017312;28;20460;-85
2021/12/28 06:43:41;;;;;;;103.72;28.27;;;5.60;99.90;;;;;;5064191;28;20266;-85
2021/12/28 06:46:07;;;;;;;102.47;28.52;;;5.20;99.90;;;;;;5030306;28;20041;-85
2021/12/28 06:48:33;;;;;;;91.55;27.17;;;5.10;99.90;;;;;;5047239;28;20638;-85
2021/12/28 06:50:58;;;;;;;102.80;28.45;;;5.10;99.90;;;;;;5047026;28;20037;-85
2021/12/28 06:53:24;;;;;;;82.33;24.30;;;5.10;99.90;;;;;;5046864;28;20049;-85
2021/12/28 06:55:50;;;;;;;82.35;24.52;;;5.20;99.90;;;;;;5013837;28;20286;-85
2021/12/28 06:58:16;;;;;;;94.95;26.65;;;5.10;99.90;;;;;;5009618;28;20576;-85
2021/12/28 07:00:43;;;;;;;84.80;25.65;;;5.70;99.90;;;;;;5030034;28;20045;-85
2021/12/28 07:03:08;;;;;;;;;;;5.60;99.90;;;;;;5064227;28;20233;-86
2021/12/28 07:05:34;;;;;;;82.07;24.33;;;5.10;99.90;;;;;;5014020;28;19917;-85
2021/12/28 07:08:03;;;;;;;83.28;23.67;;;5.10;99.90;;;;;;5063410;28;20045;-85
2021/12/28 07:10:29;;;;;;;81.97;24.10;;;5.10;99.90;;;;;;5063550;28;20473;-85
2021/12/28 07:12:55;;;;;;;88.70;25.50;;;5.10;99.90;;;;;;5076671;28;20045;-85
2021/12/28 07:15:22;;;;;;;81.50;24.50;;;5.10;99.90;;;;;;5033278;28;20041;-85
2021/12/28 07:17:49;;;;;;;85.88;24.40;;;5.00;99.90;;;;;;5017204;28;20401;-85
2021/12/28 07:20:15;;;;;;;69.72;22.20;;;5.00;99.90;;;;;;5033008;28;20032;-85
2021/12/28 07:22:41;;;;;;;76.00;23.80;;;6.50;99.90;;;;;;5049887;28;20120;-85
2021/12/28 07:25:09;;;;;;;78.35;23.33;;;5.20;99.90;;;;;;5049601;28;20033;-85
2021/12/28 07:27:36;;;;;;;71.30;23.13;;;5.00;99.90;;;;;;5027521;28;20044;-85
2021/12/28 07:30:05;;;;;;;71.13;22.85;;;5.00;99.90;;;;;;5013303;28;20048;-85
2021/12/28 07:32:31;;;;;;;75.25;22.40;;;5.10;99.90;;;;;;5013304;28;20124;-85
2021/12/28 07:34:57;;;;;;;65.38;20.00;;;5.10;99.90;;;;;;5029450;28;20524;-85
2021/12/28 07:37:22;;;;;;;72.17;22.13;;;5.20;99.90;;;;;;5013586;28;20093;-85
2021/12/28 07:39:50;;;;;;;63.00;21.75;;;5.20;99.90;;;;;;5046351;28;20276;-86
2021/12/28 07:42:17;;;;;;;74.10;22.02;;;5.30;99.90;;;;;;5029461;28;20049;-85
2021/12/28 07:44:43;;;;;;;63.63;21.70;;;5.30;99.90;;;;;;5030090;28;20138;-85
2021/12/28 07:47:09;;;;;;;58.83;19.85;;;5.90;99.90;;;;;;5013078;28;20041;-86
2021/12/28 07:49:35;;;;;;;70.47;20.95;;;5.40;99.90;;;;;;5012822;28;20042;-85
2021/12/28 07:52:00;;;;;;;64.13;19.67;;;5.40;99.90;;;;;;5062306;28;20045;-85
2021/12/28 07:54:26;;;;;;;55.10;19.73;;;5.50;99.90;;;;;;4996595;28;20075;-85
2021/12/28 07:56:52;;;;;;;60.28;18.70;;;5.50;99.90;;;;;;5012941;28;20037;-85
2021/12/28 07:59:18;;;;;;;52.33;18.07;;;6.80;99.90;;;;;;5012918;28;20504;-85
2021/12/28 08:01:43;;;;;;;58.03;19.08;;;6.10;99.90;;;;;;5045775;28;20299;-85
2021/12/28 08:04:09;;;;;;;53.57;18.27;;;5.60;99.90;;;;;;5062339;28;20413;-85
2021/12/28 08:06:35;;;;;;;52.92;17.17;;;5.70;99.90;;;;;;5013124;28;20045;-85
2021/12/28 08:09:04;;;;;;;46.78;15.70;;;5.70;99.90;;;;;;5045839;28;20461;-85
2021/12/28 08:11:30;;;;;;;40.72;14.45;;;5.80;99.90;;;;;;5013030;28;20128;-85
2021/12/28 08:13:55;;;;;;;42.88;16.38;;;5.80;99.90;;;;;;5062453;28;20044;-85
2021/12/28 08:16:22;;;;;;;47.03;15.60;;;5.80;99.90;;;;;;5045211;28;20046;-85
2021/12/28 08:18:48;;;;;;;48.00;16.52;;;5.80;99.90;;;;;;4996176;28;20296;-85
2021/12/28 08:21:13;;;;;;;47.13;15.50;;;5.80;99.90;;;;;;5012290;28;20099;-85
2021/12/28 08:23:40;;;;;;;48.63;16.67;;;5.80;99.90;;;;;;5045724;28;20500;-85
2021/12/28 08:26:06;;;;;;;;;;;5.80;99.90;;;;;;5013491;28;20071;-85
2021/12/28 08:28:32;;;;;;;42.10;14.82;;;7.00;99.90;;;;;;5012499;28;19960;-85
2021/12/28 08:30:58;;;;;;;41.67;15.18;;;6.60;99.90;;;;;;5045082;28;20041;-85
2021/12/28 08:33:24;;;;;;;38.55;14.05;;;5.80;99.90;;;;;;5028424;28;20059;-85
2021/12/28 08:35:51;;;;;;;39.70;15.40;;;5.90;99.90;;;;;;5012833;28;20037;-85
2021/12/28 08:38:16;;;;;;;33.38;13.38;;;5.90;99.90;;;;;;4996311;28;20445;-85
2021/12/28 08:40:44;;;;;;;38.55;15.48;;;6.10;99.90;;;;;;5029161;28;20056;-85
2021/12/28 08:43:11;;;;;;;43.30;13.57;;;6.20;99.90;;;;;;5061891;28;20056;-85
2021/12/28 08:45:38;;;;;;;33.45;13.85;;;6.00;99.90;;;;;;5028739;28;20037;-85
2021/12/28 08:48:05;;;;;;;41.20;13.80;;;6.00;99.90;;;;;;5015530;28;20469;-85
2021/12/28 08:50:32;;;;;;;31.35;12.57;;;6.00;99.90;;;;;;5065550;28;20036;-85
2021/12/28 08:52:58;;;;;;;33.03;13.02;;;6.00;99.90;;;;;;5032385;28;20033;-85
2021/12/28 08:55:24;;;;;;;35.15;13.45;;;6.10;99.90;;;;;;5065620;28;20110;-85
2021/12/28 08:57:51;;;;;;;33.50;13.60;;;6.20;99.90;;;;;;5065640;28;20051;-85
2021/12/28 09:00:27;;;;;;;37.17;12.25;;;6.20;99.90;;;;;;5048627;28;20033;-85
2021/12/28 09:02:55;;;;;;;33.72;11.02;;;6.30;99.90;;;;;;5082637;28;20044;-85
2021/12/28 09:05:21;;;;;;;31.60;12.63;;;6.40;99.90;;;;;;5045851;28;20040;-85
2021/12/28 09:07:47;;;;;;;31.13;12.00;;;6.40;99.90;;;;;;5061586;28;20041;-85
2021/12/28 09:10:13;;;;;;;27.02;10.32;;;6.90;99.90;;;;;;5027999;28;20041;-85
2021/12/28 09:12:39;;;;;;;23.77;10.02;;;6.50;99.90;;;;;;4995371;28;20041;-85
2021/12/28 09:15:07;;;;;;;32.50;10.70;;;7.50;99.90;;;;;;5011039;28;20347;-85
2021/12/28 09:17:34;;;;;;;23.75;9.63;;;6.60;99.90;;;;;;5061266;28;20049;-85
2021/12/28 09:20:05;;;;;;;26.60;10.43;;;6.60;99.90;;;;;;5061422;28;20106;-86
2021/12/28 09:22:30;;;;;;;31.58;10.77;;;6.60;99.90;;;;;;5011550;28;20038;-85
2021/12/28 09:24:56;;;;;;;23.38;9.35;;;6.70;99.90;;;;;;5028364;28;20053;-85
2021/12/28 09:27:22;;;;;;;28.10;9.48;;;6.70;99.90;;;;;;5027733;28;20037;-86
2021/12/28 09:29:48;;;;;;;27.95;9.23;;;6.80;99.90;;;;;;5061663;28;20045;-85
2021/12/28 09:32:13;;;;;;;24.17;9.30;;;6.90;99.90;;;;;;5027866;28;20042;-85
2021/12/28 09:34:42;;;;;;;21.42;8.48;;;6.90;99.90;;;;;;5061279;28;20126;-85
2021/12/28 09:37:07;;;;;;;27.00;8.85;;;7.10;99.90;;;;;;5061173;28;20040;-85
2021/12/28 09:39:33;;;;;;;25.13;9.10;;;7.40;99.90;;;;;;5044207;28;20038;-85
2021/12/28 09:42:01;;;;;;;24.10;8.57;;;7.70;99.90;;;;;;5044691;28;20418;-86
2021/12/28 09:44:29;;;;;;;22.27;8.82;;;6.90;99.90;;;;;;5060833;28;20294;-85
2021/12/28 09:46:55;;;;;;;24.95;8.93;;;6.90;99.90;;;;;;5044481;28;20051;-85
2021/12/28 09:49:22;;;;;;;24.63;8.68;;;7.30;99.90;;;;;;5061160;28;20124;-85
2021/12/28 09:51:47;;;;;;;;;;;6.90;99.90;;;;;;5061667;28;20038;-85
2021/12/28 09:54:14;;;;;;;23.40;8.23;;;7.00;99.90;;;;;;5027707;28;19917;-85
2021/12/28 09:56:40;;;;;;;20.15;7.40;;;7.00;99.90;;;;;;5060823;28;20044;-85
2021/12/28 09:59:06;;;;;;;28.92;8.73;;;7.00;99.90;;;;;;5060946;28;20049;-85
2021/12/28 10:01:32;;;;;;;25.13;7.70;;;7.10;99.90;;;;;;5060590;28;20145;-85
2021/12/28 10:03:59;;;;;;;20.48;7.32;;;7.10;99.90;;;;;;5044523;28;20138;-85
2021/12/28 10:06:27;;;;;;;29.25;8.38;;;6.60;99.90;;;;;;5044075;28;20387;-85
2021/12/28 10:09:16;;;;;;;19.75;8.23;;;7.10;99.90;;;;;;5060747;28;20038;-85
2021/12/28 10:11:53;;;;;;;19.08;7.45;;;7.10;99.90;;;;;;5044293;28;20044;-85
2021/12/28 10:14:25;;;;;;;21.67;7.25;;;7.20;99.90;;;;;;5044799;28;20072;-86
2021/12/28 10:16:59;;;;;;;19.30;7.30;;;7.20;99.90;;;;;;5027944;28;20123;-85
2021/12/28 10:19:38;;;;;;;18.70;6.80;;;7.20;99.90;;;;;;5027599;28;20049;-86
2021/12/28 10:22:30;;;;;;;16.83;7.15;;;7.20;99.90;;;;;;5061315;28;20049;-86
2021/12/28 10:25:18;;;;;;;17.30;6.53;;;7.20;99.90;;;;;;5060397;28;20053;-85
2021/12/28 10:27:47;;;;;;;19.58;6.97;;;7.20;99.90;;;;;;5043723;28;20045;-85
2021/12/28 10:30:26;;;;;;;17.33;5.72;;;7.30;99.90;;;;;;5010961;28;20060;-85
2021/12/28 10:33:05;;;;;;;13.63;6.70;;;7.30;99.90;;;;;;5027701;28;20043;-85
2021/12/28 10:35:41;;;;;;;21.33;6.80;;;7.30;99.90;;;;;;5046166;28;20049;-85
2021/12/28 10:38:13;;;;;;;20.30;6.47;;;7.30;99.90;;;;;;5031546;28;20041;-85
2021/12/28 10:40:43;;;;;;;18.30;6.85;;;7.30;99.90;;;;;;5014312;28;20307;-85
2021/12/28 10:43:29;;;;;;;18.13;6.32;;;7.30;99.90;;;;;;5014870;28;20089;-85
2021/12/28 10:46:05;;;;;;;19.88;6.95;;;7.30;99.90;;;;;;5084579;28;20041;-85
2021/12/28 10:48:35;;;;;;;19.55;7.07;;;7.30;99.90;;;;;;5066710;28;20037;-85
2021/12/28 10:51:13;;;;;;;21.42;6.75;;;7.30;99.90;;;;;;5084761;28;20041;-85
2021/12/28 10:56:22;;;;;;;16.60;7.00;;;7.30;99.90;;;;;;5084005;28;20427;-85
2021/12/28 10:58:50;;;;;;;17.23;7.22;;;7.40;99.90;;;;;;5083783;28;20045;-86
2021/12/28 11:01:18;;;;;;;20.40;7.85;;;7.40;99.90;;;;;;5054806;28;20042;-86
2021/12/28 11:03:49;;;;;;;20.23;8.10;;;7.40;99.90;;;;;;5014247;28;20048;-86
2021/12/28 11:06:20;;;;;;;24.08;9.02;;;7.40;99.90;;;;;;5030927;28;20374;-85
2021/12/28 11:08:48;;;;;;;21.80;7.38;;;7.40;99.90;;;;;;5014500;28;20128;-85
2021/12/28 11:11:19;;;;;;;22.60;9.07;;;7.40;99.90;;;;;;5064242;28;20052;-85
2021/12/28 11:13:45;;;;;;;19.83;8.20;;;7.40;99.90;;;;;;5014196;28;20073;-85
2021/12/28 11:16:12;;;;;;;20.70;8.90;;;7.40;99.90;;;;;;5036179;28;20095;-85
2021/12/28 11:18:42;;;;;;;23.70;9.25;;;8.20;99.90;;;;;;5066801;28;20048;-85
2021/12/28 11:21:13;;;;;;;19.75;8.73;;;7.40;99.90;;;;;;5084516;28;20128;-85
2021/12/28 11:23:40;;;;;;;14.25;7.72;;;7.40;99.90;;;;;;5084055;28;20544;-85
2021/12/28 11:26:14;;;;;;;17.55;7.60;;;7.50;99.90;;;;;;5067295;28;20040;-85
2021/12/28 11:28:42;;;;;;;17.90;7.93;;;7.50;99.90;;;;;;5083410;28;20041;-85
2021/12/28 11:31:20;;;;;;;22.83;8.57;;;7.50;99.90;;;;;;5050521;28;20037;-85
2021/12/28 11:33:50;;;;;;;19.88;8.95;;;7.50;99.90;;;;;;5063988;28;20486;-85
2021/12/28 11:36:17;;;;;;;20.05;8.52;;;7.50;99.90;;;;;;5064033;28;20045;-86
2021/12/28 11:38:44;;;;;;;22.38;8.90;;;7.50;99.90;;;;;;5063429;28;20041;-83
2021/12/28 11:41:10;;;;;;;18.63;8.65;;;7.50;99.90;;;;;;5046486;28;20037;-83
2021/12/28 11:43:38;;;;;;;19.10;8.13;;;7.50;99.90;;;;;;5063647;28;20239;-83
2021/12/28 11:46:04;;;;;;;16.20;9.32;;;7.50;99.90;;;;;;5063760;28;20049;-83
2021/12/28 11:48:32;;;;;;;26.90;11.90;;;7.70;99.90;;;;;;5062837;28;20045;-83
2021/12/28 11:50:58;;;;;;;17.80;10.07;;;7.60;99.90;;;;;;5047564;28;20024;-83
2021/12/28 11:53:25;;;;;;;18.60;9.88;;;7.60;99.90;;;;;;5063427;28;20080;-83
2021/12/28 11:55:52;;;;;;;27.88;14.65;;;7.60;99.90;;;;;;5063228;28;20037;-84
2021/12/28 11:58:17;;;;;;;15.07;8.88;;;8.30;99.90;;;;;;5029683;28;20029;-84
2021/12/28 12:00:44;;;;;;;14.85;9.52;;;7.70;99.90;;;;;;5063796;28;20049;-83
2021/12/28 12:03:33;;;;;;;22.60;11.77;;;7.70;99.90;;;;;;5063932;28;20072;-84
2021/12/28 12:05:59;;;;;;;32.65;17.95;;;7.70;99.90;;;;;;5063003;28;20049;-83
2021/12/28 12:08:26;;;;;;;17.65;9.45;;;7.70;99.90;;;;;;5046088;28;20046;-83
2021/12/28 12:11:01;;;;;;;21.70;10.32;;;7.70;99.90;;;;;;5062908;28;20045;-83
2021/12/28 12:13:29;;;;;;;17.38;8.80;;;7.70;99.90;;;;;;5046282;28;20042;-83
2021/12/28 12:16:15;;;;;;;34.92;16.50;;;7.90;99.90;;;;;;5062792;28;20120;-83
2021/12/28 12:18:49;;;;;;;18.52;10.60;;;8.00;99.90;;;;;;5029151;28;20068;-83
2021/12/28 12:21:19;;;;;;;16.77;8.90;;;7.80;99.90;;;;;;5029724;28;20392;-83
2021/12/28 12:23:54;;;;;;;15.75;7.85;;;7.70;99.90;;;;;;5045845;28;20041;-82
2021/12/28 12:26:34;;;;;;;18.70;8.60;;;7.80;99.90;;;;;;5062800;28;20136;-82
2021/12/28 12:29:05;;;;;;;17.77;8.15;;;7.80;99.90;;;;;;5062623;28;20037;-82
2021/12/28 12:31:40;;;;;;;13.35;7.95;;;8.00;99.90;;;;;;5046107;28;20545;-82
2021/12/28 12:34:32;;;;;;;15.50;8.45;;;7.80;99.90;;;;;;5062837;28;20045;-82
2021/12/28 12:36:58;;;;;;;10.45;6.25;;;7.80;99.90;;;;;;5012681;28;20033;-82
2021/12/28 12:39:24;;;;;;;15.70;8.23;;;7.80;99.90;;;;;;5062045;28;20052;-83
2021/12/28 12:41:54;;;;;;;12.57;7.55;;;7.90;99.90;;;;;;5045439;28;20114;-83